Time;durP1;ratioP1;P1;durP2;ratioP2;P2;SDS_P1;SDS_P2;PMS_P1;PMS_P2;Temp;Humidity;BMP_temperature;BMP_pressure;BME280_temperature;BME280_humidity;BME280_pressure;Samples;Min_cycle;Max_cycle;Signal;HPM_P1;HPM_P2
2022/04/03 00:00:37;;;;;;;;;;;4.80;79.40;;;;;;4990008;28;19921;-62
2022/04/03 00:03:04;;;;;;;;;;;4.80;79.60;;;;;;4997194;28;19917;-60
2022/04/03 00:05:30;;;;;;;;;;;4.80;79.80;;;;;;4996273;28;19937;-60
2022/04/03 00:07:55;;;;;;;;;;;4.80;79.10;;;;;;4993503;28;20294;-60
2022/04/03 00:10:22;;;;;;;;;;;4.80;79.40;;;;;;4993617;28;20416;-61
2022/04/03 00:12:47;;;;;;;;;;;4.80;79.50;;;;;;4990838;28;19914;-62
2022/04/03 00:15:16;;;;;;;;;;;4.80;80.00;;;;;;4993988;28;19910;-60
2022/04/03 00:17:43;;;;;;;;;;;4.80;80.40;;;;;;4994787;28;19922;-61
2022/04/03 00:20:09;;;;;;;;;;;4.70;79.70;;;;;;4993009;28;20030;-60
2022/04/03 00:22:34;;;;;;;;;;;4.80;80.70;;;;;;4992933;28;19914;-59
2022/04/03 00:25:00;;;;;;;;;;;4.70;81.20;;;;;;4992535;28;20354;-60
2022/04/03 00:27:25;;;;;;;;;;;4.70;80.70;;;;;;4991050;28;19921;-62
2022/04/03 00:29:51;;;;;;;;;;;4.70;79.60;;;;;;4995881;28;19914;-61
2022/04/03 00:32:17;;;;;;;;;;;4.70;80.40;;;;;;4992882;28;19917;-61
2022/04/03 00:34:42;;;;;;;;;;;4.60;80.80;;;;;;4993449;28;20342;-60
2022/04/03 00:37:08;;;;;;;;;;;4.60;79.90;;;;;;5003693;28;19988;-59
2022/04/03 00:39:33;;;;;;;;;;;4.60;81.30;;;;;;5004517;28;19956;-60
2022/04/03 00:41:59;;;;;;;;;;;4.50;81.10;;;;;;4996701;28;20012;-59
2022/04/03 00:44:25;;;;;;;;;;;4.50;81.60;;;;;;4992790;28;19914;-63
2022/04/03 00:46:50;;;;;;;;;;;4.50;80.80;;;;;;4993018;28;19914;-61
2022/04/03 00:49:16;;;;;;;;;;;4.40;81.70;;;;;;4992904;28;19913;-58
2022/04/03 00:51:42;;;;;;;;;;;4.40;80.70;;;;;;5004848;28;20016;-60
2022/04/03 00:54:08;;;;;;;;;;;4.40;81.40;;;;;;4994846;28;20591;-61
2022/04/03 00:56:34;;;;;;;;;;;4.40;82.50;;;;;;4993552;28;19917;-61
2022/04/03 00:58:59;;;;;;;;;;;4.40;83.00;;;;;;4992508;28;19922;-61
2022/04/03 01:01:25;;;;;;;;;;;4.30;83.80;;;;;;4993156;28;19920;-63
2022/04/03 01:03:50;;;;;;;;;;;4.30;82.60;;;;;;4990782;28;20391;-60
2022/04/03 01:06:16;;;;;;;;;;;4.40;83.50;;;;;;4992547;28;19910;-61
2022/04/03 01:08:42;;;;;;;;;;;4.30;81.30;;;;;;4994103;28;19909;-62
2022/04/03 01:11:11;;;;;;;;;;;4.30;83.00;;;;;;4992631;28;19922;-61
2022/04/03 01:13:43;;;;;;;;;;;4.30;83.00;;;;;;4993063;28;20016;-63
2022/04/03 01:16:10;;;;;;;;;;;4.30;83.80;;;;;;4993242;28;19924;-60
2022/04/03 01:18:35;;;;;;;;;;;4.30;83.80;;;;;;4988683;28;19921;-62
2022/04/03 01:21:01;;;;;;;;;;;4.30;84.10;;;;;;4996384;28;19937;-60
2022/04/03 01:23:26;;;;;;;;;;;4.30;82.20;;;;;;4992695;28;19921;-61
2022/04/03 01:25:52;;;;;;;;;;;4.20;84.10;;;;;;4992889;28;19921;-61
2022/04/03 01:28:17;;;;;;;;;;;4.20;82.70;;;;;;4993170;28;20384;-60
2022/04/03 01:30:43;;;;;;;;;;;4.20;84.80;;;;;;4989593;28;20367;-61
2022/04/03 01:33:08;;;;;;;;;;;4.20;84.70;;;;;;4994128;28;19910;-61
2022/04/03 01:35:34;;;;;;;;;;;4.20;84.10;;;;;;4993434;28;19910;-63
2022/04/03 01:37:59;;;;;;;;;;;4.20;84.70;;;;;;4992698;28;19937;-61
2022/04/03 01:40:25;;;;;;;;;;;4.20;84.90;;;;;;4992586;28;19914;-61
2022/04/03 01:42:50;;;;;;;;;;;4.20;84.30;;;;;;4991772;28;19921;-59
2022/04/03 01:45:16;;;;;;;;;;;4.20;83.60;;;;;;4991511;28;19909;-60
2022/04/03 01:47:42;;;;;;;;;;;4.20;82.30;;;;;;4993900;28;20024;-61
2022/04/03 01:50:07;;;;;;;;;;;4.10;84.90;;;;;;4992773;28;19957;-60
2022/04/03 01:52:33;;;;;;;;;;;4.20;84.80;;;;;;4992878;28;20339;-61
2022/04/03 01:54:59;;;;;;;;;;;4.20;84.80;;;;;;4991201;28;19918;-60
2022/04/03 01:57:25;;;;;;;;;;;4.20;83.50;;;;;;4990597;28;20032;-61
2022/04/03 01:59:51;;;;;;;;;;;4.20;83.70;;;;;;4994997;28;20009;-61
2022/04/03 02:02:16;;;;;;;;;;;4.20;84.70;;;;;;4992719;28;20363;-61
2022/04/03 02:04:41;;;;;;;;;;;4.20;84.70;;;;;;4992405;28;19921;-61
2022/04/03 02:07:07;;;;;;;;;;;4.20;85.50;;;;;;4992570;28;20471;-62
2022/04/03 02:09:33;;;;;;;;;;;4.20;84.60;;;;;;4972820;28;19926;-60
2022/04/03 02:11:58;;;;;;;;;;;4.20;86.20;;;;;;4995638;28;19914;-60
2022/04/03 02:14:27;;;;;;;;;;;4.20;84.60;;;;;;4993129;28;19961;-62
2022/04/03 02:16:54;;;;;;;;;;;4.20;85.20;;;;;;4992069;28;19949;-61
2022/04/03 02:19:20;;;;;;;;;;;4.20;86.00;;;;;;4992358;28;19925;-62
2022/04/03 02:21:45;;;;;;;;;;;4.20;85.20;;;;;;4989732;28;19922;-61
2022/04/03 02:24:11;;;;;;;;;;;4.20;86.10;;;;;;4993022;28;19926;-61
2022/04/03 02:26:36;;;;;;;;;;;4.20;85.60;;;;;;4992367;28;19957;-62
2022/04/03 02:29:02;;;;;;;;;;;4.20;86.40;;;;;;4988324;28;19920;-61
2022/04/03 02:31:27;;;;;;;;;;;4.20;85.80;;;;;;4992274;28;19922;-61
2022/04/03 02:33:53;;;;;;;;;;;4.20;86.70;;;;;;4990267;28;19922;-61
2022/04/03 02:36:18;;;;;;;;;;;4.20;86.90;;;;;;4992228;28;20395;-62
2022/04/03 02:38:44;;;;;;;;;;;4.20;86.30;;;;;;4992901;28;19918;-62
2022/04/03 02:41:09;;;;;;;;;;;4.20;86.30;;;;;;4992238;28;19997;-60
2022/04/03 02:43:35;;;;;;;;;;;4.20;86.90;;;;;;4992168;28;20341;-62
2022/04/03 02:46:00;;;;;;;;;;;4.20;87.40;;;;;;4994739;28;19941;-61
2022/04/03 02:48:26;;;;;;;;;;;4.20;86.70;;;;;;4993792;28;19969;-62
2022/04/03 02:50:51;;;;;;;;;;;4.20;86.00;;;;;;4998125;28;19909;-60
2022/04/03 02:53:17;;;;;;;;;;;4.20;87.00;;;;;;4995488;28;20000;-62
2022/04/03 02:55:42;;;;;;;;;;;4.20;87.50;;;;;;4995715;28;19961;-60
2022/04/03 02:58:08;;;;;;;;;;;4.20;87.80;;;;;;4995340;28;20397;-62
2022/04/03 03:00:35;;;;;;;;;;;4.20;86.80;;;;;;4991633;28;20387;-61
2022/04/03 03:03:01;;;;;;;;;;;4.20;86.40;;;;;;4999081;28;20371;-62
2022/04/03 03:05:26;;;;;;;;;;;4.10;86.70;;;;;;4995593;28;19960;-63
2022/04/03 03:07:52;;;;;;;;;;;4.10;87.10;;;;;;4994838;28;20390;-61
2022/04/03 03:10:19;;;;;;;;;;;4.10;87.60;;;;;;4995419;28;19917;-60
2022/04/03 03:12:46;;;;;;;;;;;4.10;87.60;;;;;;4992240;28;19921;-63
2022/04/03 03:15:12;;;;;;;;;;;4.10;88.40;;;;;;4996183;28;19910;-61
2022/04/03 03:17:38;;;;;;;;;;;4.20;86.50;;;;;;4998298;28;19944;-61
2022/04/03 03:20:05;;;;;;;;;;;4.20;88.50;;;;;;4994974;28;19914;-62
2022/04/03 03:22:31;;;;;;;;;;;4.20;87.00;;;;;;4994882;28;19937;-60
2022/04/03 03:24:57;;;;;;;;;;;4.10;87.60;;;;;;4993660;28;20398;-59
2022/04/03 03:27:22;;;;;;;;;;;4.10;87.70;;;;;;4993809;28;19910;-61
2022/04/03 03:29:48;;;;;;;;;;;4.10;88.50;;;;;;4996651;28;20028;-61
2022/04/03 03:32:13;;;;;;;;;;;4.10;87.30;;;;;;4994192;28;19918;-63
2022/04/03 03:34:39;;;;;;;;;;;4.00;87.60;;;;;;4994283;28;19925;-60
2022/04/03 03:37:04;;;;;;;;;;;4.00;87.90;;;;;;4994243;28;19917;-63
2022/04/03 03:39:30;;;;;;;;;;;4.00;89.00;;;;;;4991590;28;20303;-61
2022/04/03 03:41:55;;;;;;;;;;;4.00;88.70;;;;;;4996900;28;20338;-61
2022/04/03 03:44:21;;;;;;;;;;;4.10;87.70;;;;;;4994039;28;20288;-60
2022/04/03 03:46:47;;;;;;;;;;;4.00;88.00;;;;;;4994054;28;19925;-61
2022/04/03 03:49:14;;;;;;;;;;;4.00;89.00;;;;;;4994596;28;19960;-60
2022/04/03 03:51:39;;;;;;;;;;;4.00;89.20;;;;;;4990130;28;19972;-61
2022/04/03 03:54:05;;;;;;;;;;;4.00;89.00;;;;;;4997871;28;19914;-62
2022/04/03 03:56:31;;;;;;;;;;;4.00;89.20;;;;;;4993787;28;19964;-62
2022/04/03 03:58:56;;;;;;;;;;;4.00;89.90;;;;;;4993473;28;20429;-61
2022/04/03 04:01:22;;;;;;;;;;;3.90;90.10;;;;;;4994124;28;19914;-61
2022/04/03 04:03:48;;;;;;;;;;;4.00;90.10;;;;;;4991137;28;19914;-61
2022/04/03 04:06:14;;;;;;;;;;;4.00;89.50;;;;;;4993824;28;19967;-62
2022/04/03 04:08:40;;;;;;;;;;;3.90;88.90;;;;;;4995395;28;20006;-61
2022/04/03 04:11:05;;;;;;;;;;;3.90;89.10;;;;;;4993606;28;19921;-60
2022/04/03 04:13:31;;;;;;;;;;;3.90;90.00;;;;;;4993414;28;19956;-61
2022/04/03 04:15:57;;;;;;;;;;;3.90;89.90;;;;;;4992158;28;20013;-60
2022/04/03 04:18:22;;;;;;;;;;;3.90;90.10;;;;;;4992471;28;20302;-61
2022/04/03 04:20:48;;;;;;;;;;;3.90;89.50;;;;;;4995293;28;20442;-60
2022/04/03 04:23:14;;;;;;;;;;;3.90;90.20;;;;;;4993861;28;20406;-61
2022/04/03 04:25:39;;;;;;;;;;;3.90;89.10;;;;;;4999800;28;20057;-62
2022/04/03 04:28:05;;;;;;;;;;;3.90;89.50;;;;;;4981469;28;19996;-61
2022/04/03 04:30:31;;;;;;;;;;;3.90;90.30;;;;;;4990467;28;20303;-61
2022/04/03 04:32:56;;;;;;;;;;;3.90;90.20;;;;;;4996249;28;19910;-63
2022/04/03 04:35:22;;;;;;;;;;;3.90;90.10;;;;;;4992718;28;20048;-63
2022/04/03 04:37:47;;;;;;;;;;;3.90;89.10;;;;;;4992830;28;19918;-61
2022/04/03 04:40:13;;;;;;;;;;;3.90;90.10;;;;;;4993467;28;19918;-62
2022/04/03 04:42:39;;;;;;;;;;;3.90;89.70;;;;;;4989434;28;19943;-62
2022/04/03 04:45:06;;;;;;;;;;;3.90;90.00;;;;;;4996010;28;19910;-62
2022/04/03 04:47:36;;;;;;;;;;;3.80;90.10;;;;;;4995406;28;19914;-62
2022/04/03 04:50:05;;;;;;;;;;;3.80;88.60;;;;;;4993157;28;19968;-62
2022/04/03 04:52:30;;;;;;;;;;;3.70;89.20;;;;;;4993783;28;20000;-63
2022/04/03 04:54:56;;;;;;;;;;;3.60;90.30;;;;;;4991680;28;20000;-62
2022/04/03 04:57:21;;;;;;;;;;;3.60;90.30;;;;;;4992175;28;19922;-62
2022/04/03 04:59:47;;;;;;;;;;;3.60;90.50;;;;;;4995606;28;19957;-62
2022/04/03 05:02:12;;;;;;;;;;;3.50;90.40;;;;;;4993306;28;19914;-62
2022/04/03 05:04:38;;;;;;;;;;;3.50;90.30;;;;;;4993154;28;20412;-60
2022/04/03 05:07:04;;;;;;;;;;;3.50;90.50;;;;;;4992169;28;19920;-62
2022/04/03 05:09:31;;;;;;;;;;;3.40;90.20;;;;;;4990384;28;19914;-63
2022/04/03 05:11:57;;;;;;;;;;;3.40;90.80;;;;;;4996499;28;19956;-63
2022/04/03 05:14:23;;;;;;;;;;;3.40;90.70;;;;;;4993069;28;19961;-63
2022/04/03 05:16:49;;;;;;;;;;;3.30;90.50;;;;;;4992483;28;20700;-62
2022/04/03 05:19:15;;;;;;;;;;;3.30;90.20;;;;;;4993264;28;20492;-62
2022/04/03 05:21:41;;;;;;;;;;;3.30;90.80;;;;;;4989669;28;19918;-62
2022/04/03 05:24:07;;;;;;;;;;;3.20;90.70;;;;;;4995344;28;20034;-61
2022/04/03 05:26:33;;;;;;;;;;;3.20;91.30;;;;;;4993264;28;20427;-61
2022/04/03 05:28:58;;;;;;;;;;;3.20;91.20;;;;;;4993012;28;19910;-62
2022/04/03 05:31:26;;;;;;;;;;;3.10;91.30;;;;;;4991884;28;19960;-61
2022/04/03 05:33:53;;;;;;;;;;;3.10;91.40;;;;;;4992455;28;20394;-62
2022/04/03 05:36:19;;;;;;;;;;;3.10;90.90;;;;;;4993110;28;19917;-64
2022/04/03 05:38:44;;;;;;;;;;;3.00;91.00;;;;;;4996785;28;19928;-62
2022/04/03 05:41:10;;;;;;;;;;;2.90;91.10;;;;;;4991594;28;20461;-61
2022/04/03 05:43:35;;;;;;;;;;;2.90;90.70;;;;;;4992489;28;19917;-62
2022/04/03 05:46:01;;;;;;;;;;;2.80;91.20;;;;;;4991658;28;20271;-61
2022/04/03 05:48:26;;;;;;;;;;;2.80;91.30;;;;;;4989230;28;19918;-61
2022/04/03 05:50:52;;;;;;;;;;;2.80;91.30;;;;;;4995299;28;19952;-62
2022/04/03 05:53:17;;;;;;;;;;;2.80;91.20;;;;;;4992452;28;19957;-62
2022/04/03 05:55:43;;;;;;;;;;;2.70;91.40;;;;;;4992293;28;19918;-63
2022/04/03 05:58:08;;;;;;;;;;;2.70;91.40;;;;;;4992244;28;19975;-63
2022/04/03 06:00:34;;;;;;;;;;;2.70;91.80;;;;;;5003313;28;19913;-61
2022/04/03 06:03:00;;;;;;;;;;;2.70;91.40;;;;;;4996002;28;19921;-62
2022/04/03 06:05:26;;;;;;;;;;;2.70;91.80;;;;;;4992180;28;19913;-63
2022/04/03 06:07:52;;;;;;;;;;;2.70;92.10;;;;;;4992667;28;19975;-62
2022/04/03 06:10:21;;;;;;;;;;;2.70;92.10;;;;;;4992250;28;19913;-61
2022/04/03 06:13:00;;;;;;;;;;;2.70;91.60;;;;;;4989751;28;19918;-60
2022/04/03 06:15:27;;;;;;;;;;;2.70;91.90;;;;;;4990303;28;20468;-63
2022/04/03 06:17:53;;;;;;;;;;;2.70;91.60;;;;;;4994956;28;19922;-63
2022/04/03 06:20:19;;;;;;;;;;;2.70;91.90;;;;;;4995267;28;19983;-62
2022/04/03 06:22:45;;;;;;;;;;;2.70;92.40;;;;;;4996155;28;20391;-61
2022/04/03 06:25:11;;;;;;;;;;;2.70;91.90;;;;;;4996499;28;19948;-62
2022/04/03 06:27:36;;;;;;;;;;;2.80;91.30;;;;;;4991812;28;19913;-62
2022/04/03 06:30:02;;;;;;;;;;;2.70;91.70;;;;;;4999417;28;20295;-62
2022/04/03 06:32:29;;;;;;;;;;;2.70;91.80;;;;;;4996052;28;19940;-63
2022/04/03 06:34:54;;;;;;;;;;;2.80;91.50;;;;;;4995939;28;19925;-62
2022/04/03 06:37:20;;;;;;;;;;;2.80;91.70;;;;;;4995476;28;19918;-64
2022/04/03 06:39:45;;;;;;;;;;;2.80;91.10;;;;;;4993098;28;19918;-63
2022/04/03 06:42:11;;;;;;;;;;;2.80;91.20;;;;;;4997090;28;19913;-64
2022/04/03 06:44:37;;;;;;;;;;;2.80;90.60;;;;;;4996622;28;19910;-65
2022/04/03 06:47:03;;;;;;;;;;;2.80;90.60;;;;;;4995950;28;19918;-64
2022/04/03 06:49:29;;;;;;;;;;;2.90;91.40;;;;;;4995830;28;19928;-65
2022/04/03 06:51:55;;;;;;;;;;;2.90;91.10;;;;;;4995679;28;19914;-62
2022/04/03 06:54:20;;;;;;;;;;;2.90;90.70;;;;;;4995844;28;19909;-63
2022/04/03 06:56:46;;;;;;;;;;;2.90;90.50;;;;;;4997298;28;20020;-64
2022/04/03 06:59:11;;;;;;;;;;;2.90;90.60;;;;;;4994862;28;19945;-62
2022/04/03 07:01:37;;;;;;;;;;;2.90;91.50;;;;;;4995701;28;19971;-62
2022/04/03 07:04:02;;;;;;;;;;;3.00;91.70;;;;;;4995191;28;19914;-62
2022/04/03 07:06:28;;;;;;;;;;;3.00;90.90;;;;;;4993025;28;19954;-63
2022/04/03 07:08:53;;;;;;;;;;;3.00;90.80;;;;;;4994448;28;19965;-62
2022/04/03 07:11:19;;;;;;;;;;;3.10;90.20;;;;;;4994170;28;20298;-63
2022/04/03 07:13:45;;;;;;;;;;;3.00;90.70;;;;;;4994978;28;19959;-62
2022/04/03 07:16:10;;;;;;;;;;;3.10;91.20;;;;;;4995478;28;19914;-62
2022/04/03 07:18:36;;;;;;;;;;;3.10;90.00;;;;;;4991434;28;20413;-62
2022/04/03 07:21:01;;;;;;;;;;;3.10;90.90;;;;;;4998739;28;19909;-62
2022/04/03 07:23:27;;;;;;;;;;;3.10;90.20;;;;;;4994891;28;19985;-62
2022/04/03 07:25:53;;;;;;;;;;;3.10;90.40;;;;;;4995816;28;20027;-63
2022/04/03 07:28:18;;;;;;;;;;;3.10;89.70;;;;;;4994726;28;19913;-60
2022/04/03 07:30:44;;;;;;;;;;;3.10;90.50;;;;;;4991148;28;19914;-62
2022/04/03 07:33:09;;;;;;;;;;;3.10;90.40;;;;;;4996747;28;19910;-63
2022/04/03 07:35:36;;;;;;;;;;;3.10;90.20;;;;;;4995692;28;19910;-61
2022/04/03 07:38:02;;;;;;;;;;;3.20;89.40;;;;;;4994941;28;19976;-61
2022/04/03 07:40:27;;;;;;;;;;;3.20;90.10;;;;;;4994775;28;19917;-62
2022/04/03 07:42:53;;;;;;;;;;;3.20;90.50;;;;;;4991981;28;19918;-62
2022/04/03 07:45:18;;;;;;;;;;;3.30;90.20;;;;;;4995163;28;19956;-62
2022/04/03 07:47:45;;;;;;;;;;;3.40;90.00;;;;;;4993759;28;19917;-63
2022/04/03 07:50:11;;;;;;;;;;;3.40;87.10;;;;;;4991697;28;20406;-60
2022/04/03 07:52:36;;;;;;;;;;;3.40;89.30;;;;;;4994387;28;19917;-59
2022/04/03 07:55:02;;;;;;;;;;;3.50;90.50;;;;;;4993455;28;20437;-60
2022/04/03 07:57:27;;;;;;;;;;;3.50;90.20;;;;;;4991522;28;19976;-59
2022/04/03 07:59:53;;;;;;;;;;;3.70;88.50;;;;;;4997212;28;20001;-55
2022/04/03 08:02:18;;;;;;;;;;;3.80;88.70;;;;;;4994222;28;19925;-58
2022/04/03 08:04:44;;;;;;;;;;;3.80;86.90;;;;;;4994393;28;20008;-58
2022/04/03 08:07:09;;;;;;;;;;;3.80;87.70;;;;;;4996722;28;19918;-53
2022/04/03 08:09:35;;;;;;;;;;;3.80;84.80;;;;;;5006986;28;19914;-53
2022/04/03 08:12:00;;;;;;;;;;;3.80;86.40;;;;;;5002562;28;19975;-54
2022/04/03 08:14:27;;;;;;;;;;;3.80;83.90;;;;;;5005743;28;20459;-55
2022/04/03 08:16:53;;;;;;;;;;;3.80;88.00;;;;;;5001224;28;19917;-56
2022/04/03 08:19:19;;;;;;;;;;;3.80;86.50;;;;;;5002595;28;19924;-56
2022/04/03 08:21:44;;;;;;;;;;;3.90;85.40;;;;;;5006846;28;19914;-54
2022/04/03 08:24:09;;;;;;;;;;;3.90;84.00;;;;;;5009678;28;19913;-57
2022/04/03 08:26:35;;;;;;;;;;;4.00;83.40;;;;;;5006459;28;19909;-56
2022/04/03 08:29:01;;;;;;;;;;;4.00;84.20;;;;;;4996425;28;20403;-55
2022/04/03 08:31:27;;;;;;;;;;;4.10;85.30;;;;;;5005700;28;19918;-54
2022/04/03 08:33:53;;;;;;;;;;;4.10;83.90;;;;;;5006639;28;19914;-56
2022/04/03 08:36:19;;;;;;;;;;;4.10;82.90;;;;;;5007859;28;19916;-56
2022/04/03 08:38:45;;;;;;;;;;;4.10;83.30;;;;;;4988937;28;19961;-54
2022/04/03 08:41:11;;;;;;;;;;;4.20;83.60;;;;;;4980038;28;19911;-53
2022/04/03 08:43:38;;;;;;;;;;;4.20;82.80;;;;;;4977712;28;19914;-57
2022/04/03 08:46:06;;;;;;;;;;;4.20;84.70;;;;;;4984971;28;19936;-55
2022/04/03 08:48:32;;;;;;;;;;;4.30;83.10;;;;;;4996566;28;20062;-58
2022/04/03 08:51:00;;;;;;;;;;;4.30;80.40;;;;;;5010611;28;20392;-57
2022/04/03 08:53:26;;;;;;;;;;;4.40;81.40;;;;;;5005894;28;19914;-57
2022/04/03 08:55:51;;;;;;;;;;;4.30;80.90;;;;;;5006807;28;19928;-57
2022/04/03 08:58:18;;;;;;;;;;;4.40;81.50;;;;;;5006435;28;20353;-56
2022/04/03 09:00:44;;;;;;;;;;;4.40;81.80;;;;;;5004068;28;19948;-57
2022/04/03 09:03:10;;;;;;;;;;;4.50;79.60;;;;;;5005810;28;19918;-56
2022/04/03 09:05:40;;;;;;;;;;;4.50;79.20;;;;;;4993683;28;19922;-54
2022/04/03 09:08:06;;;;;;;;;;;4.50;77.50;;;;;;4993062;28;19910;-54
2022/04/03 09:10:32;;;;;;;;;;;4.50;79.70;;;;;;4992376;28;19914;-58
2022/04/03 09:12:58;;;;;;;;;;;4.60;78.90;;;;;;4990789;28;19924;-55
2022/04/03 09:15:24;;;;;;;;;;;4.60;76.90;;;;;;5007587;28;19909;-56
2022/04/03 09:17:57;;;;;;;;;;;4.60;78.80;;;;;;4991977;28;19941;-56
2022/04/03 09:20:24;;;;;;;;;;;4.60;78.60;;;;;;4993150;28;19920;-56
2022/04/03 09:22:51;;;;;;;;;;;4.70;77.00;;;;;;4992548;28;20009;-58
2022/04/03 09:25:22;;;;;;;;;;;4.80;78.60;;;;;;4999627;28;19917;-57
2022/04/03 09:27:49;;;;;;;;;;;4.90;78.40;;;;;;5006006;28;19915;-56
2022/04/03 09:30:14;;;;;;;;;;;4.90;78.30;;;;;;5009475;28;20007;-56
2022/04/03 09:32:50;;;;;;;;;;;4.90;75.00;;;;;;4993905;28;20009;-56
2022/04/03 09:35:16;;;;;;;;;;;5.00;75.70;;;;;;4992322;28;19918;-57
2022/04/03 09:38:01;;;;;;;;;;;5.10;78.20;;;;;;4992224;28;20012;-55
2022/04/03 09:40:30;;;;;;;;;;;5.10;74.80;;;;;;4992329;28;19917;-57
2022/04/03 09:43:25;;;;;;;;;;;5.10;75.40;;;;;;4989925;28;19920;-57
2022/04/03 09:45:50;;;;;;;;;;;5.10;70.20;;;;;;4968882;28;20001;-57
2022/04/03 09:48:26;;;;;;;;;;;5.20;73.60;;;;;;4977712;28;20021;-57
2022/04/03 09:50:55;;;;;;;;;;;5.20;69.70;;;;;;4977003;28;20397;-56
2022/04/03 09:53:20;;;;;;;;;;;5.30;69.90;;;;;;4976245;28;19924;-58
2022/04/03 09:55:46;;;;;;;;;;;5.30;67.40;;;;;;4977286;28;19997;-58
2022/04/03 09:58:12;;;;;;;;;;;5.20;69.40;;;;;;4977635;28;20037;-58
2022/04/03 10:00:40;;;;;;;;;;;5.30;67.00;;;;;;4977036;28;19914;-57
2022/04/03 10:03:08;;;;;;;;;;;5.30;68.00;;;;;;4983989;28;19913;-54
2022/04/03 10:05:34;;;;;;;;;;;5.30;67.00;;;;;;4976546;28;19918;-57
2022/04/03 10:08:00;;;;;;;;;;;5.30;69.30;;;;;;4976983;28;20341;-58
2022/04/03 10:10:29;;;;;;;;;;;5.40;66.70;;;;;;4976514;28;19924;-54
2022/04/03 10:12:55;;;;;;;;;;;5.40;66.40;;;;;;4977733;28;19965;-58
2022/04/03 10:15:21;;;;;;;;;;;5.40;64.60;;;;;;4977081;28;19914;-56
2022/04/03 10:17:47;;;;;;;;;;;5.40;63.80;;;;;;4975823;28;20009;-57
2022/04/03 10:20:14;;;;;;;;;;;5.40;64.20;;;;;;4977610;28;20394;-55
2022/04/03 10:22:41;;;;;;;;;;;5.40;64.30;;;;;;4975439;28;19993;-57
2022/04/03 10:25:07;;;;;;;;;;;5.50;63.00;;;;;;4977433;28;19918;-54
2022/04/03 10:27:34;;;;;;;;;;;5.50;63.90;;;;;;4980600;28;19965;-55
2022/04/03 10:30:00;;;;;;;;;;;5.60;66.00;;;;;;4977396;28;19922;-58
2022/04/03 10:32:27;;;;;;;;;;;5.70;63.40;;;;;;4977881;28;19949;-57
2022/04/03 10:34:55;;;;;;;;;;;5.70;65.00;;;;;;4976179;28;19964;-57
2022/04/03 10:37:25;;;;;;;;;;;5.70;65.20;;;;;;4976196;28;19929;-57
2022/04/03 10:39:51;;;;;;;;;;;5.80;64.10;;;;;;4976970;28;19922;-55
2022/04/03 10:42:20;;;;;;;;;;;5.80;64.70;;;;;;4976126;28;19968;-58
2022/04/03 10:45:05;;;;;;;;;;;5.90;63.00;;;;;;4975403;28;19921;-58
2022/04/03 10:47:30;;;;;;;;;;;5.90;63.60;;;;;;4980293;28;19922;-57
2022/04/03 10:50:00;;;;;;;;;;;5.90;64.50;;;;;;4979246;28;20294;-58
2022/04/03 10:52:38;;;;;;;;;;;5.90;66.40;;;;;;4989728;28;20013;-58
2022/04/03 10:55:15;;;;;;;;;;;6.00;64.20;;;;;;4989185;28;19921;-58
2022/04/03 10:57:43;;;;;;;;;;;6.10;64.40;;;;;;4987467;28;20096;-57
2022/04/03 11:00:11;;;;;;;;;;;6.00;63.70;;;;;;4990922;28;19914;-58
2022/04/03 11:02:57;;;;;;;;;;;5.90;66.20;;;;;;4975497;28;19946;-57
2022/04/03 11:05:26;;;;;;;;;;;6.00;66.50;;;;;;4978872;28;20068;-57
2022/04/03 11:08:14;;;;;;;;;;;6.10;65.60;;;;;;4976325;28;19937;-57
2022/04/03 11:10:58;;;;;;;;;;;6.20;63.30;;;;;;4978542;28;20005;-53
2022/04/03 11:13:44;;;;;;;;;;;6.10;62.30;;;;;;4992357;28;20508;-57
2022/04/03 11:16:11;;;;;;;;;;;6.10;62.10;;;;;;4986913;28;19929;-57
2022/04/03 11:18:36;;;;;;;;;;;6.10;66.40;;;;;;4981958;28;20466;-55
2022/04/03 11:21:12;;;;;;;;;;;6.20;63.20;;;;;;4977723;28;19931;-56
2022/04/03 11:23:40;;;;;;;;;;;6.30;63.80;;;;;;4977166;28;20283;-56
2022/04/03 11:26:06;;;;;;;;;;;6.50;62.00;;;;;;4968227;28;20398;-57
2022/04/03 11:28:32;;;;;;;;;;;6.50;63.40;;;;;;4979532;28;19953;-58
2022/04/03 11:30:59;;;;;;;;;;;6.50;65.00;;;;;;4977206;28;19956;-57
2022/04/03 11:33:25;;;;;;;;;;;6.60;64.80;;;;;;4976942;28;19945;-57
2022/04/03 11:35:51;;;;;;;;;;;6.60;64.60;;;;;;4975177;28;20840;-57
2022/04/03 11:38:17;;;;;;;;;;;6.70;63.40;;;;;;4977548;28;20004;-58
2022/04/03 11:40:43;;;;;;;;;;;6.60;64.80;;;;;;4976638;28;19960;-57
2022/04/03 11:43:09;;;;;;;;;;;6.60;63.00;;;;;;4979141;28;19914;-57
2022/04/03 11:45:35;;;;;;;;;;;6.60;64.50;;;;;;4978755;28;19929;-58
2022/04/03 11:48:18;;;;;;;;;;;6.60;62.20;;;;;;4979641;28;19921;-57
2022/04/03 11:50:44;;;;;;;;;;;6.70;62.00;;;;;;4979484;28;20446;-58
2022/04/03 11:53:10;;;;;;;;;;;6.60;58.80;;;;;;4979474;28;19953;-57
2022/04/03 11:55:36;;;;;;;;;;;6.50;59.20;;;;;;4977278;28;19914;-58
2022/04/03 11:58:04;;;;;;;;;;;6.50;59.80;;;;;;4978690;28;19922;-58
2022/04/03 12:00:33;;;;;;;;;;;6.50;61.50;;;;;;4978316;28;20782;-57
2022/04/03 12:03:03;;;;;;;;;;;6.70;60.10;;;;;;4978108;28;19972;-56
2022/04/03 12:05:29;;;;;;;;;;;6.80;60.10;;;;;;4977238;28;19914;-57
2022/04/03 12:07:54;;;;;;;;;;;6.80;60.90;;;;;;4978141;28;19921;-56
2022/04/03 12:10:24;;;;;;;;;;;6.90;60.70;;;;;;4978773;28;19918;-55
2022/04/03 12:12:49;;;;;;;;;;;7.00;61.30;;;;;;4979391;28;20041;-57
2022/04/03 12:15:18;;;;;;;;;;;7.10;60.60;;;;;;4977641;28;20004;-58
2022/04/03 12:17:44;;;;;;;;;;;7.20;61.70;;;;;;4982905;28;20020;-56
2022/04/03 12:20:11;;;;;;;;;;;7.30;61.70;;;;;;4978812;28;20001;-55
2022/04/03 12:22:40;;;;;;;;;;;7.20;60.70;;;;;;4975975;28;20456;-57
2022/04/03 12:25:05;;;;;;;;;;;7.20;61.60;;;;;;4980779;28;19921;-56
2022/04/03 12:27:33;;;;;;;;;;;7.30;60.80;;;;;;4978094;28;19922;-57
2022/04/03 12:29:58;;;;;;;;;;;7.30;58.20;;;;;;4982714;28;20398;-58
2022/04/03 12:32:39;;;;;;;;;;;7.40;60.70;;;;;;4977409;28;19914;-57
2022/04/03 12:35:05;;;;;;;;;;;7.30;60.40;;;;;;4976721;28;19976;-57
2022/04/03 12:37:32;;;;;;;;;;;7.30;60.70;;;;;;4975965;28;19962;-58
2022/04/03 12:40:08;;;;;;;;;;;7.40;60.80;;;;;;4978906;28;19914;-59
2022/04/03 12:42:35;;;;;;;;;;;7.40;59.40;;;;;;4981120;28;19914;-58
2022/04/03 12:45:08;;;;;;;;;;;7.50;59.90;;;;;;4977846;28;19914;-57
2022/04/03 12:47:33;;;;;;;;;;;7.50;58.30;;;;;;4985755;28;19918;-57
2022/04/03 12:50:08;;;;;;;;;;;7.50;58.90;;;;;;4977524;28;19924;-58
2022/04/03 12:52:41;;;;;;;;;;;7.50;59.20;;;;;;4976251;28;20000;-57
2022/04/03 12:55:26;;;;;;;;;;;7.50;60.20;;;;;;4980603;28;19964;-57
2022/04/03 13:00:48;;;;;;;;;;;7.80;59.30;;;;;;4977050;28;19921;-57
2022/04/03 13:03:23;;;;;;;;;;;7.80;58.60;;;;;;4976959;28;20015;-58
2022/04/03 13:05:48;;;;;;;;;;;7.80;58.10;;;;;;4990523;28;19914;-57
2022/04/03 13:08:14;;;;;;;;;;;7.80;59.00;;;;;;4978059;28;19940;-57
2022/04/03 13:10:52;;;;;;;;;;;7.90;59.50;;;;;;4977670;28;19976;-59
2022/04/03 13:13:24;;;;;;;;;;;8.00;58.90;;;;;;4978558;28;19914;-58
2022/04/03 13:15:50;;;;;;;;;;;8.10;59.30;;;;;;4979382;28;19925;-58
2022/04/03 13:18:15;;;;;;;;;;;8.10;59.30;;;;;;4981460;28;19922;-59
2022/04/03 13:20:46;;;;;;;;;;;8.10;60.10;;;;;;4976469;28;20013;-56
2022/04/03 13:23:12;;;;;;;;;;;8.00;60.10;;;;;;4977865;28;19972;-57
2022/04/03 13:25:37;;;;;;;;;;;8.00;59.40;;;;;;4976041;28;19918;-58
2022/04/03 13:28:03;;;;;;;;;;;8.00;58.30;;;;;;4977181;28;19947;-59
2022/04/03 13:30:32;;;;;;;;;;;7.90;59.60;;;;;;4976625;28;19922;-58
2022/04/03 13:32:57;;;;;;;;;;;8.00;60.40;;;;;;4991227;28;19925;-57
2022/04/03 13:35:23;;;;;;;;;;;8.00;56.40;;;;;;4976346;28;19918;-59
2022/04/03 13:37:49;;;;;;;;;;;7.90;59.90;;;;;;4975833;28;20368;-57
2022/04/03 13:40:14;;;;;;;;;;;7.90;59.40;;;;;;4977251;28;19918;-56
2022/04/03 13:42:40;;;;;;;;;;;8.00;59.10;;;;;;4976860;28;19987;-58
2022/04/03 13:45:06;;;;;;;;;;;8.00;58.70;;;;;;4977338;28;19914;-57
2022/04/03 13:47:31;;;;;;;;;;;7.90;57.40;;;;;;4974786;28;20288;-57
2022/04/03 13:49:57;;;;;;;;;;;7.80;56.80;;;;;;4976824;28;20310;-57
2022/04/03 13:52:24;;;;;;;;;;;7.80;56.10;;;;;;4976583;28;19918;-57
2022/04/03 13:54:49;;;;;;;;;;;7.80;59.80;;;;;;4977323;28;19914;-56
2022/04/03 13:57:15;;;;;;;;;;;7.90;55.20;;;;;;4975862;28;20358;-55
2022/04/03 13:59:40;;;;;;;;;;;7.90;57.70;;;;;;4975793;28;19953;-57
2022/04/03 14:02:06;;;;;;;;;;;8.00;57.60;;;;;;4978735;28;20457;-57
2022/04/03 14:04:31;;;;;;;;;;;8.00;54.90;;;;;;4975553;28;19972;-57
2022/04/03 14:06:57;;;;;;;;;;;8.00;57.10;;;;;;4977223;28;19918;-57
2022/04/03 14:09:22;;;;;;;;;;;8.00;57.00;;;;;;4982029;28;20433;-57
2022/04/03 14:11:48;;;;;;;;;;;8.00;57.40;;;;;;4974807;28;19914;-58
2022/04/03 14:14:14;;;;;;;;;;;8.00;57.10;;;;;;4976693;28;19917;-58
2022/04/03 14:16:40;;;;;;;;;;;8.10;58.00;;;;;;4979539;28;20279;-58
2022/04/03 14:19:05;;;;;;;;;;;8.20;56.10;;;;;;4982322;28;19977;-58
2022/04/03 14:21:32;;;;;;;;;;;8.10;57.90;;;;;;4976302;28;19914;-58
2022/04/03 14:23:58;;;;;;;;;;;8.20;57.90;;;;;;4975804;28;20005;-59
2022/04/03 14:26:23;;;;;;;;;;;8.00;56.40;;;;;;4976740;28;20013;-58
2022/04/03 14:28:49;;;;;;;;;;;7.90;54.50;;;;;;4975194;28;19936;-58
2022/04/03 14:31:15;;;;;;;;;;;7.80;54.40;;;;;;4991518;28;20287;-56